<?xml version='1.0' encoding='UTF-8'?><gpx version="1.1" creator="JPX - https://github.com/jenetics/jpx" xmlns="http://www.topografix.com/GPX/1/1"><trk><trkseg><trkpt lat="45.71853567475389" lon="9.771017865360712"><ele>333.0</ele><time>2026-04-20T13:47:03Z</time></trkpt><trkpt lat="45.71845449516943" lon="9.7709545683994"><ele>333.0</ele><time>2026-04-20T13:47:05Z</time></trkpt><trkpt lat="45.718346242076024" lon="9.770883588714623"><ele>333.0</ele><time>2026-04-20T13:47:07Z</time></trkpt><trkpt lat="45.71824210098208" lon="9.77081488494382"><ele>333.0</ele><time>2026-04-20T13:47:09Z</time></trkpt><trkpt lat="45.71818531720709" lon="9.770774393100206"><ele>333.0</ele><time>2026-04-20T13:47:10Z</time></trkpt><trkpt lat="45.71812622691161" lon="9.770731932567541"><ele>333.0</ele><time>2026-04-20T13:47:11Z</time></trkpt><trkpt lat="45.71802555407545" lon="9.770656094659616"><ele>333.0</ele><time>2026-04-20T13:47:13Z</time></trkpt><trkpt lat="45.71792847297458" lon="9.770603256609583"><ele>333.0</ele><time>2026-04-20T13:47:15Z</time></trkpt><trkpt lat="45.71785451204714" lon="9.770602836364436"><ele>333.0</ele><time>2026-04-20T13:47:17Z</time></trkpt><trkpt lat="45.71776666413517" lon="9.770569598647814"><ele>333.0</ele><time>2026-04-20T13:47:20Z</time></trkpt><trkpt lat="45.71769933255601" lon="9.770482370430631"><ele>331.8333333333333</ele><time>2026-04-20T13:47:22Z</time></trkpt><trkpt lat="45.717625175142736" lon="9.7704282016293"><ele>330.6666666666667</ele><time>2026-04-20T13:47:23Z</time></trkpt><trkpt lat="45.71756514000676" lon="9.770358535341815"><ele>329.5</ele><time>2026-04-20T13:47:24Z</time></trkpt><trkpt lat="45.717510457757875" lon="9.770303123638405"><ele>328.33333333333337</ele><time>2026-04-20T13:47:25Z</time></trkpt><trkpt lat="45.71748056225718" lon="9.770201622959837"><ele>327.1666666666667</ele><time>2026-04-20T13:47:28Z</time></trkpt><trkpt lat="45.71756751988148" lon="9.77009800546732"><ele>326.0</ele><time>2026-04-20T13:47:30Z</time></trkpt><trkpt lat="45.717641716830535" lon="9.769966248988975"><ele>326.5</ele><time>2026-04-20T13:47:32.001Z</time></trkpt><trkpt lat="45.71773163603687" lon="9.769848703915043"><ele>327.0</ele><time>2026-04-20T13:47:34.001Z</time></trkpt><trkpt lat="45.71780909654302" lon="9.769720138980912"><ele>327.5</ele><time>2026-04-20T13:47:36.001Z</time></trkpt><trkpt lat="45.71788793747582" lon="9.769597118284377"><ele>328.0</ele><time>2026-04-20T13:47:38.001Z</time></trkpt><trkpt lat="45.71796412046515" lon="9.769474071207886"><ele>326.79999999999995</ele><time>2026-04-20T13:47:40.001Z</time></trkpt><trkpt lat="45.71804698140745" lon="9.769337165973827"><ele>325.6</ele><time>2026-04-20T13:47:42.001Z</time></trkpt><trkpt lat="45.718091694071056" lon="9.76926986533126"><ele>324.4</ele><time>2026-04-20T13:47:43.001Z</time></trkpt><trkpt lat="45.71817294477282" lon="9.769148487737999"><ele>323.20000000000005</ele><time>2026-04-20T13:47:45.001Z</time></trkpt><trkpt lat="45.71825969534211" lon="9.769035085072591"><ele>322.0</ele><time>2026-04-20T13:47:47.001Z</time></trkpt><trkpt lat="45.718353365500874" lon="9.768927316132078"><ele>322.0</ele><time>2026-04-20T13:47:49.001Z</time></trkpt><trkpt lat="45.71845023860511" lon="9.768824610086778"><ele>322.0</ele><time>2026-04-20T13:47:51.001Z</time></trkpt><trkpt lat="45.71855584631286" lon="9.768733359642367"><ele>322.0</ele><time>2026-04-20T13:47:53.001Z</time></trkpt><trkpt lat="45.718658373666436" lon="9.768635882302219"><ele>322.0</ele><time>2026-04-20T13:47:55.001Z</time></trkpt><trkpt lat="45.71875746071096" lon="9.768534595898194"><ele>322.25</ele><time>2026-04-20T13:47:57.001Z</time></trkpt><trkpt lat="45.71885743544816" lon="9.768434618917269"><ele>322.5</ele><time>2026-04-20T13:47:59.001Z</time></trkpt><trkpt lat="45.71895383257585" lon="9.768333934321562"><ele>322.75</ele><time>2026-04-20T13:48:01.001Z</time></trkpt><trkpt lat="45.71904831758613" lon="9.768242984569836"><ele>323.0</ele><time>2026-04-20T13:48:03Z</time></trkpt><trkpt lat="45.71914143657069" lon="9.768148699727602"><ele>323.0</ele><time>2026-04-20T13:48:05Z</time></trkpt><trkpt lat="45.7192346931961" lon="9.768064075548002"><ele>323.0</ele><time>2026-04-20T13:48:07Z</time></trkpt><trkpt lat="45.71932574711705" lon="9.767973763567081"><ele>323.0</ele><time>2026-04-20T13:48:09Z</time></trkpt><trkpt lat="45.71941298397132" lon="9.767883494801843"><ele>323.0</ele><time>2026-04-20T13:48:11Z</time></trkpt><trkpt lat="45.719504562470405" lon="9.767794249792688"><ele>323.0</ele><time>2026-04-20T13:48:13Z</time></trkpt><trkpt lat="45.71959417455716" lon="9.76769991350851"><ele>323.75</ele><time>2026-04-20T13:48:15Z</time></trkpt><trkpt lat="45.719689808704175" lon="9.767604553842045"><ele>324.5</ele><time>2026-04-20T13:48:17Z</time></trkpt><trkpt lat="45.719787763014686" lon="9.767512942479202"><ele>325.25</ele><time>2026-04-20T13:48:19Z</time></trkpt><trkpt lat="45.719877649251636" lon="9.767420102397564"><ele>326.0</ele><time>2026-04-20T13:48:21Z</time></trkpt><trkpt lat="45.7199692185575" lon="9.767325396769072"><ele>326.0</ele><time>2026-04-20T13:48:23Z</time></trkpt><trkpt lat="45.720055376161646" lon="9.76723624111517"><ele>326.0</ele><time>2026-04-20T13:48:25Z</time></trkpt><trkpt lat="45.720147164523624" lon="9.767147914435279"><ele>326.0</ele><time>2026-04-20T13:48:27Z</time></trkpt><trkpt lat="45.72023372374746" lon="9.767059673992557"><ele>326.0</ele><time>2026-04-20T13:48:29Z</time></trkpt><trkpt lat="45.72031874221169" lon="9.766956626029314"><ele>326.0</ele><time>2026-04-20T13:48:31Z</time></trkpt><trkpt lat="45.720431541356845" lon="9.766879148248684"><ele>325.20000000000005</ele><time>2026-04-20T13:48:33Z</time></trkpt><trkpt lat="45.72048968209247" lon="9.766827078209122"><ele>324.40000000000003</ele><time>2026-04-20T13:48:34Z</time></trkpt><trkpt lat="45.72060002963133" lon="9.76673404548474"><ele>323.6</ele><time>2026-04-20T13:48:36Z</time></trkpt><trkpt lat="45.720690942037955" lon="9.766612428468221"><ele>322.8</ele><time>2026-04-20T13:48:38Z</time></trkpt><trkpt lat="45.72077492015723" lon="9.766482529520104"><ele>322.0</ele><time>2026-04-20T13:48:40Z</time></trkpt><trkpt lat="45.72082217249398" lon="9.766408311047838"><ele>322.0</ele><time>2026-04-20T13:48:41Z</time></trkpt><trkpt lat="45.72092039829347" lon="9.766289755495963"><ele>322.0</ele><time>2026-04-20T13:48:43Z</time></trkpt><trkpt lat="45.720972629659464" lon="9.766223833832505"><ele>322.0</ele><time>2026-04-20T13:48:44Z</time></trkpt><trkpt lat="45.721019527471235" lon="9.766155429127119"><ele>322.0</ele><time>2026-04-20T13:48:45Z</time></trkpt><trkpt lat="45.721066793084695" lon="9.766094329410368"><ele>322.0</ele><time>2026-04-20T13:48:46Z</time></trkpt><trkpt lat="45.721116597475" lon="9.766035278571215"><ele>322.0</ele><time>2026-04-20T13:48:47Z</time></trkpt><trkpt lat="45.72117115632719" lon="9.765972560885206"><ele>321.57142857142856</ele><time>2026-04-20T13:48:48Z</time></trkpt><trkpt lat="45.721219016118475" lon="9.765909202104623"><ele>321.1428571428571</ele><time>2026-04-20T13:48:49Z</time></trkpt><trkpt lat="45.721272446617135" lon="9.765847308402583"><ele>320.7142857142857</ele><time>2026-04-20T13:48:50Z</time></trkpt><trkpt lat="45.72133178468768" lon="9.765790583872546"><ele>320.2857142857143</ele><time>2026-04-20T13:48:51Z</time></trkpt><trkpt lat="45.72138318859523" lon="9.765729796562034"><ele>319.85714285714283</ele><time>2026-04-20T13:48:52Z</time></trkpt><trkpt lat="45.72143923440922" lon="9.765670376749135"><ele>319.42857142857144</ele><time>2026-04-20T13:48:53Z</time></trkpt><trkpt lat="45.721492176711784" lon="9.765606644131495"><ele>319.0</ele><time>2026-04-20T13:48:54Z</time></trkpt><trkpt lat="45.721547913124496" lon="9.765560507661892"><ele>319.0</ele><time>2026-04-20T13:48:55Z</time></trkpt><trkpt lat="45.72160162579171" lon="9.765503426186045"><ele>319.0</ele><time>2026-04-20T13:48:56Z</time></trkpt><trkpt lat="45.72165551879447" lon="9.765444763132574"><ele>319.0</ele><time>2026-04-20T13:48:57Z</time></trkpt><trkpt lat="45.72171107743029" lon="9.76538356705398"><ele>319.0</ele><time>2026-04-20T13:48:58Z</time></trkpt><trkpt lat="45.72182179600768" lon="9.765287817105282"><ele>319.0</ele><time>2026-04-20T13:49:00Z</time></trkpt><trkpt lat="45.72187489236188" lon="9.76523611884037"><ele>319.0</ele><time>2026-04-20T13:49:01Z</time></trkpt><trkpt lat="45.7219810348357" lon="9.765136909747373"><ele>319.0</ele><time>2026-04-20T13:49:03Z</time></trkpt><trkpt lat="45.722035217050326" lon="9.765083015606058"><ele>319.0</ele><time>2026-04-20T13:49:04Z</time></trkpt><trkpt lat="45.72209055006814" lon="9.765027860683508"><ele>319.0</ele><time>2026-04-20T13:49:05Z</time></trkpt><trkpt lat="45.72214956658059" lon="9.764973455769232"><ele>319.0</ele><time>2026-04-20T13:49:06Z</time></trkpt><trkpt lat="45.72221327062332" lon="9.764917388951119"><ele>319.0</ele><time>2026-04-20T13:49:07Z</time></trkpt><trkpt lat="45.72226763601131" lon="9.764856466303282"><ele>319.0</ele><time>2026-04-20T13:49:08Z</time></trkpt><trkpt lat="45.722332185030126" lon="9.764799879775001"><ele>319.0</ele><time>2026-04-20T13:49:09Z</time></trkpt><trkpt lat="45.722394516249615" lon="9.764741170168891"><ele>319.0</ele><time>2026-04-20T13:49:10Z</time></trkpt><trkpt lat="45.722454304228144" lon="9.764677541069398"><ele>319.0</ele><time>2026-04-20T13:49:11Z</time></trkpt><trkpt lat="45.722517214851756" lon="9.764615279654691"><ele>319.0</ele><time>2026-04-20T13:49:12Z</time></trkpt><trkpt lat="45.72258241144789" lon="9.764556395717067"><ele>319.0</ele><time>2026-04-20T13:49:13Z</time></trkpt><trkpt lat="45.72264142889055" lon="9.764498402254711"><ele>319.0</ele><time>2026-04-20T13:49:14Z</time></trkpt><trkpt lat="45.72270593919513" lon="9.764431535044608"><ele>319.0</ele><time>2026-04-20T13:49:15Z</time></trkpt><trkpt lat="45.72276598051981" lon="9.764375953109264"><ele>318.16666666666663</ele><time>2026-04-20T13:49:16Z</time></trkpt><trkpt lat="45.722835498926244" lon="9.764315470241629"><ele>317.3333333333333</ele><time>2026-04-20T13:49:17Z</time></trkpt><trkpt lat="45.722894752624306" lon="9.764246823831487"><ele>316.5</ele><time>2026-04-20T13:49:18Z</time></trkpt><trkpt lat="45.72295620199391" lon="9.7641768178393"><ele>315.6666666666667</ele><time>2026-04-20T13:49:19Z</time></trkpt><trkpt lat="45.72301695380628" lon="9.764110988357844"><ele>314.83333333333337</ele><time>2026-04-20T13:49:20Z</time></trkpt><trkpt lat="45.723074093306735" lon="9.764039054245849"><ele>314.0</ele><time>2026-04-20T13:49:21Z</time></trkpt><trkpt lat="45.7231321407703" lon="9.763971026146022"><ele>313.99999999999994</ele><time>2026-04-20T13:49:22Z</time></trkpt><trkpt lat="45.723188944598256" lon="9.763899895669555"><ele>314.0</ele><time>2026-04-20T13:49:23Z</time></trkpt><trkpt lat="45.72324053472191" lon="9.763831642645615"><ele>314.0</ele><time>2026-04-20T13:49:24Z</time></trkpt><trkpt lat="45.723291248741376" lon="9.763769706487977"><ele>314.0</ele><time>2026-04-20T13:49:25Z</time></trkpt><trkpt lat="45.72334489143558" lon="9.76368658405502"><ele>314.0</ele><time>2026-04-20T13:49:26Z</time></trkpt><trkpt lat="45.723395240800684" lon="9.763631055366938"><ele>313.99999999999994</ele><time>2026-04-20T13:49:27Z</time></trkpt><trkpt lat="45.723444247318895" lon="9.76355349687494"><ele>314.0</ele><time>2026-04-20T13:49:28Z</time></trkpt><trkpt lat="45.72349648748477" lon="9.76348535927518"><ele>314.1428571428571</ele><time>2026-04-20T13:49:29Z</time></trkpt><trkpt lat="45.723541105070446" lon="9.76341701829805"><ele>314.2857142857143</ele><time>2026-04-20T13:49:30Z</time></trkpt><trkpt lat="45.723591868083346" lon="9.763342057092514"><ele>314.42857142857144</ele><time>2026-04-20T13:49:31Z</time></trkpt><trkpt lat="45.72364269010401" lon="9.763275454167202"><ele>314.57142857142856</ele><time>2026-04-20T13:49:32Z</time></trkpt><trkpt lat="45.72369474388116" lon="9.763210091306636"><ele>314.7142857142857</ele><time>2026-04-20T13:49:33Z</time></trkpt><trkpt lat="45.723751673249915" lon="9.763153846723062"><ele>314.85714285714283</ele><time>2026-04-20T13:49:34Z</time></trkpt><trkpt lat="45.72380631894984" lon="9.763093002567112"><ele>315.0</ele><time>2026-04-20T13:49:35Z</time></trkpt><trkpt lat="45.72386238012416" lon="9.763033027486362"><ele>314.85714285714283</ele><time>2026-04-20T13:49:36Z</time></trkpt><trkpt lat="45.723919548407466" lon="9.762981317636084"><ele>314.7142857142857</ele><time>2026-04-20T13:49:37.001Z</time></trkpt><trkpt lat="45.72397294176911" lon="9.76292476938432"><ele>314.57142857142856</ele><time>2026-04-20T13:49:38.001Z</time></trkpt><trkpt lat="45.724024581128816" lon="9.762865359897186"><ele>314.42857142857144</ele><time>2026-04-20T13:49:39.001Z</time></trkpt><trkpt lat="45.72407704289487" lon="9.76280299442098"><ele>314.2857142857143</ele><time>2026-04-20T13:49:40.001Z</time></trkpt><trkpt lat="45.724127909041854" lon="9.762749594724836"><ele>314.1428571428571</ele><time>2026-04-20T13:49:41.001Z</time></trkpt><trkpt lat="45.72417496219442" lon="9.762683173123442"><ele>314.0</ele><time>2026-04-20T13:49:42.001Z</time></trkpt><trkpt lat="45.724223421750416" lon="9.762615028372748"><ele>313.99999999999994</ele><time>2026-04-20T13:49:43.001Z</time></trkpt><trkpt lat="45.72426840407253" lon="9.76253874194574"><ele>314.0</ele><time>2026-04-20T13:49:44.001Z</time></trkpt><trkpt lat="45.72430873610749" lon="9.762462098143638"><ele>314.0</ele><time>2026-04-20T13:49:45.001Z</time></trkpt><trkpt lat="45.72435210452293" lon="9.762373768190042"><ele>314.0</ele><time>2026-04-20T13:49:46.001Z</time></trkpt><trkpt lat="45.72439413501048" lon="9.762304071942818"><ele>314.0</ele><time>2026-04-20T13:49:47.001Z</time></trkpt><trkpt lat="45.72442281025788" lon="9.762210340179102"><ele>313.99999999999994</ele><time>2026-04-20T13:49:48.001Z</time></trkpt><trkpt lat="45.72446263833847" lon="9.762119633452512"><ele>314.0</ele><time>2026-04-20T13:49:49.001Z</time></trkpt><trkpt lat="45.72450367115124" lon="9.762033926928062"><ele>314.1428571428571</ele><time>2026-04-20T13:49:50.001Z</time></trkpt><trkpt lat="45.724536106389856" lon="9.761941749999888"><ele>314.2857142857143</ele><time>2026-04-20T13:49:51.001Z</time></trkpt><trkpt lat="45.72457490359889" lon="9.761846144810113"><ele>314.42857142857144</ele><time>2026-04-20T13:49:52.001Z</time></trkpt><trkpt lat="45.724617281448765" lon="9.761767712699514"><ele>314.57142857142856</ele><time>2026-04-20T13:49:53.001Z</time></trkpt><trkpt lat="45.724652943449605" lon="9.761671397951664"><ele>314.7142857142857</ele><time>2026-04-20T13:49:54.001Z</time></trkpt><trkpt lat="45.724696996649186" lon="9.76158938955769"><ele>314.85714285714283</ele><time>2026-04-20T13:49:55.001Z</time></trkpt><trkpt lat="45.72474967670399" lon="9.7615125371434"><ele>315.0</ele><time>2026-04-20T13:49:56.001Z</time></trkpt><trkpt lat="45.724807721431056" lon="9.761430967864737"><ele>315.0</ele><time>2026-04-20T13:49:57.001Z</time></trkpt><trkpt lat="45.724860573931345" lon="9.761379834178937"><ele>315.0</ele><time>2026-04-20T13:49:58.001Z</time></trkpt><trkpt lat="45.724928305999164" lon="9.761316796857066"><ele>315.0</ele><time>2026-04-20T13:49:59.001Z</time></trkpt><trkpt lat="45.724993567411424" lon="9.761256265688969"><ele>315.0</ele><time>2026-04-20T13:50:00.001Z</time></trkpt><trkpt lat="45.7250597710467" lon="9.761223448093814"><ele>315.0</ele><time>2026-04-20T13:50:01.001Z</time></trkpt><trkpt lat="45.72513247221627" lon="9.76117660575984"><ele>315.0</ele><time>2026-04-20T13:50:02.001Z</time></trkpt><trkpt lat="45.72519800754066" lon="9.761128669381856"><ele>315.0</ele><time>2026-04-20T13:50:03.001Z</time></trkpt><trkpt lat="45.72526846909301" lon="9.761086536015263"><ele>315.3333333333333</ele><time>2026-04-20T13:50:04.001Z</time></trkpt><trkpt lat="45.72533278577916" lon="9.761039981653266"><ele>315.6666666666667</ele><time>2026-04-20T13:50:05.001Z</time></trkpt><trkpt lat="45.72541233327146" lon="9.76101596529337"><ele>316.0</ele><time>2026-04-20T13:50:06.001Z</time></trkpt><trkpt lat="45.72548332677332" lon="9.760977053460884"><ele>316.33333333333337</ele><time>2026-04-20T13:50:07.001Z</time></trkpt><trkpt lat="45.72554845467275" lon="9.760947976706678"><ele>316.6666666666667</ele><time>2026-04-20T13:50:08.001Z</time></trkpt><trkpt lat="45.72562418931015" lon="9.760920109291677"><ele>317.0</ele><time>2026-04-20T13:50:09.001Z</time></trkpt><trkpt lat="45.72570233482564" lon="9.76089190960121"><ele>316.42857142857144</ele><time>2026-04-20T13:50:10.001Z</time></trkpt><trkpt lat="45.72576144692609" lon="9.760857433759858"><ele>315.85714285714283</ele><time>2026-04-20T13:50:11.001Z</time></trkpt><trkpt lat="45.72583968152495" lon="9.760833875012336"><ele>315.2857142857143</ele><time>2026-04-20T13:50:12.001Z</time></trkpt><trkpt lat="45.725907653553726" lon="9.760800922280872"><ele>314.7142857142857</ele><time>2026-04-20T13:50:13.001Z</time></trkpt><trkpt lat="45.7259800388648" lon="9.760776391452628"><ele>314.14285714285717</ele><time>2026-04-20T13:50:14.001Z</time></trkpt><trkpt lat="45.726047180447814" lon="9.760747454743218"><ele>313.57142857142856</ele><time>2026-04-20T13:50:15.001Z</time></trkpt><trkpt lat="45.726118580729334" lon="9.760713321296324"><ele>313.0</ele><time>2026-04-20T13:50:16.001Z</time></trkpt><trkpt lat="45.72619058040157" lon="9.760692689074796"><ele>313.0</ele><time>2026-04-20T13:50:17.001Z</time></trkpt><trkpt lat="45.72626028841703" lon="9.76066195153163"><ele>313.0</ele><time>2026-04-20T13:50:18.001Z</time></trkpt><trkpt lat="45.72632404087078" lon="9.760631032723289"><ele>313.0</ele><time>2026-04-20T13:50:19.001Z</time></trkpt><trkpt lat="45.726397529997605" lon="9.760608452112686"><ele>313.0</ele><time>2026-04-20T13:50:20.001Z</time></trkpt><trkpt lat="45.72646260558581" lon="9.760576776505017"><ele>313.0</ele><time>2026-04-20T13:50:21.001Z</time></trkpt><trkpt lat="45.726532503031294" lon="9.760551037330865"><ele>313.0</ele><time>2026-04-20T13:50:22.001Z</time></trkpt><trkpt lat="45.72660203902482" lon="9.760522927063256"><ele>313.0</ele><time>2026-04-20T13:50:23.001Z</time></trkpt><trkpt lat="45.72667021329484" lon="9.760495046988021"><ele>313.0</ele><time>2026-04-20T13:50:24.001Z</time></trkpt><trkpt lat="45.72674250950407" lon="9.76046329797294"><ele>313.0</ele><time>2026-04-20T13:50:25.001Z</time></trkpt><trkpt lat="45.72680518824549" lon="9.760440104788861"><ele>313.0</ele><time>2026-04-20T13:50:26.001Z</time></trkpt><trkpt lat="45.72688315036463" lon="9.760413749269174"><ele>313.0</ele><time>2026-04-20T13:50:27.001Z</time></trkpt><trkpt lat="45.72694548071932" lon="9.760392583392067"><ele>313.0</ele><time>2026-04-20T13:50:28.001Z</time></trkpt><trkpt lat="45.72702305338301" lon="9.760391294608938"><ele>313.0</ele><time>2026-04-20T13:50:29.001Z</time></trkpt><trkpt lat="45.72709932362991" lon="9.760405358343355"><ele>313.0</ele><time>2026-04-20T13:50:30.001Z</time></trkpt><trkpt lat="45.727163929495624" lon="9.760342186540097"><ele>312.5</ele><time>2026-04-20T13:50:31.001Z</time></trkpt><trkpt lat="45.72723538081199" lon="9.760323285977748"><ele>312.0</ele><time>2026-04-20T13:50:32.001Z</time></trkpt><trkpt lat="45.7272983497053" lon="9.76030160714909"><ele>311.5</ele><time>2026-04-20T13:50:33.001Z</time></trkpt><trkpt lat="45.72738086727508" lon="9.76028065997448"><ele>311.0</ele><time>2026-04-20T13:50:34.001Z</time></trkpt><trkpt lat="45.727512894231594" lon="9.760216308873167"><ele>310.5</ele><time>2026-04-20T13:50:36.001Z</time></trkpt><trkpt lat="45.72757880032088" lon="9.760166387933639"><ele>310.0</ele><time>2026-04-20T13:50:37.001Z</time></trkpt><trkpt lat="45.72767281881556" lon="9.760130627714615"><ele>310.0</ele><time>2026-04-20T13:50:39.001Z</time></trkpt><trkpt lat="45.72777750929618" lon="9.760071465326387"><ele>310.0</ele><time>2026-04-20T13:50:40.001Z</time></trkpt><trkpt lat="45.72784067253695" lon="9.760046673670534"><ele>310.0</ele><time>2026-04-20T13:50:41.001Z</time></trkpt><trkpt lat="45.727904562629774" lon="9.7600019120259"><ele>310.0</ele><time>2026-04-20T13:50:42.001Z</time></trkpt><trkpt lat="45.7279705974367" lon="9.75997339468367"><ele>310.0</ele><time>2026-04-20T13:50:43.001Z</time></trkpt><trkpt lat="45.72803610216192" lon="9.759931635777152"><ele>310.0</ele><time>2026-04-20T13:50:44.001Z</time></trkpt><trkpt lat="45.7281661514153" lon="9.759865286011095"><ele>310.0</ele><time>2026-04-20T13:50:46.001Z</time></trkpt><trkpt lat="45.728229394967144" lon="9.7598331839376"><ele>310.0</ele><time>2026-04-20T13:50:47.001Z</time></trkpt><trkpt lat="45.728289713796535" lon="9.759797724519547"><ele>310.0</ele><time>2026-04-20T13:50:48.001Z</time></trkpt><trkpt lat="45.728347651116614" lon="9.759756303339929"><ele>310.0</ele><time>2026-04-20T13:50:49.001Z</time></trkpt><trkpt lat="45.72840795925893" lon="9.759712717889302"><ele>310.0</ele><time>2026-04-20T13:50:50.001Z</time></trkpt><trkpt lat="45.72847325626145" lon="9.759684046472053"><ele>310.0</ele><time>2026-04-20T13:50:51Z</time></trkpt><trkpt lat="45.72854127071253" lon="9.759676695109201"><ele>310.0</ele><time>2026-04-20T13:50:52Z</time></trkpt><trkpt lat="45.72861547773772" lon="9.759691066389905"><ele>310.57142857142856</ele><time>2026-04-20T13:50:53Z</time></trkpt><trkpt lat="45.72865298214738" lon="9.759584648742852"><ele>311.1428571428571</ele><time>2026-04-20T13:50:54Z</time></trkpt><trkpt lat="45.72871587428459" lon="9.759553682678693"><ele>311.71428571428567</ele><time>2026-04-20T13:50:55Z</time></trkpt><trkpt lat="45.72877577942429" lon="9.759523131346036"><ele>312.2857142857143</ele><time>2026-04-20T13:50:56Z</time></trkpt><trkpt lat="45.728834664789694" lon="9.759489200488808"><ele>312.85714285714283</ele><time>2026-04-20T13:50:57Z</time></trkpt><trkpt lat="45.728894384486225" lon="9.759455099504589"><ele>313.4285714285714</ele><time>2026-04-20T13:50:58Z</time></trkpt><trkpt lat="45.72895578434437" lon="9.759425203463822"><ele>314.0</ele><time>2026-04-20T13:50:59Z</time></trkpt><trkpt lat="45.72901947743296" lon="9.759404014146746"><ele>314.0</ele><time>2026-04-20T13:51:00Z</time></trkpt><trkpt lat="45.729085641167025" lon="9.759388293730028"><ele>314.0</ele><time>2026-04-20T13:51:01Z</time></trkpt><trkpt lat="45.729148839385935" lon="9.75936543743415"><ele>305.0</ele><time>2026-04-20T13:51:02Z</time></trkpt><trkpt lat="45.729148839385935" lon="9.75936543743415"><ele>305.0</ele><time>2026-04-20T13:51:02Z</time></trkpt><trkpt lat="45.729148839385935" lon="9.75936543743415"><ele>305.0</ele><time>2026-04-20T13:51:02Z</time></trkpt><trkpt lat="45.729148839385935" lon="9.75936543743415"><ele>305.0</ele><time>2026-04-20T13:51:02Z</time></trkpt><trkpt lat="45.729148839385935" lon="9.75936543743415"><ele>305.0</ele><time>2026-04-20T13:51:02Z</time></trkpt><trkpt lat="45.729148839385935" lon="9.75936543743415"><ele>305.0</ele><time>2026-04-20T13:51:02Z</time></trkpt><trkpt lat="45.729148839385935" lon="9.75936543743415"><ele>305.0</ele><time>2026-04-20T13:51:02Z</time></trkpt><trkpt lat="45.729148839385935" lon="9.75936543743415"><ele>305.0</ele><time>2026-04-20T13:51:02Z</time></trkpt><trkpt lat="45.729148839385935" lon="9.75936543743415"><ele>305.0</ele><time>2026-04-20T13:51:02Z</time></trkpt><trkpt lat="45.729148839385935" lon="9.75936543743415"><ele>305.0</ele><time>2026-04-20T13:51:02Z</time></trkpt><trkpt lat="45.729148839385935" lon="9.75936543743415"><ele>305.0</ele><time>2026-04-20T13:51:02Z</time></trkpt><trkpt lat="45.729148839385935" lon="9.75936543743415"><ele>305.0</ele><time>2026-04-20T13:51:02Z</time></trkpt><trkpt lat="45.729148839385935" lon="9.75936543743415"><ele>305.0</ele><time>2026-04-20T13:51:02Z</time></trkpt><trkpt lat="45.729148839385935" lon="9.75936543743415"><ele>305.0</ele><time>2026-04-20T13:51:02Z</time></trkpt><trkpt lat="45.729148839385935" lon="9.75936543743415"><ele>305.0</ele><time>2026-04-20T13:51:02Z</time></trkpt><trkpt lat="45.729148839385935" lon="9.75936543743415"><ele>305.0</ele><time>2026-04-20T13:51:02Z</time></trkpt><trkpt lat="45.729148839385935" lon="9.75936543743415"><ele>305.0</ele><time>2026-04-20T13:51:02Z</time></trkpt><trkpt lat="45.729148839385935" lon="9.75936543743415"><ele>305.0</ele><time>2026-04-20T13:51:02Z</time></trkpt><trkpt lat="45.729148839385935" lon="9.75936543743415"><ele>305.0</ele><time>2026-04-20T13:51:02Z</time></trkpt><trkpt lat="45.729148839385935" lon="9.75936543743415"><ele>305.0</ele><time>2026-04-20T13:51:02Z</time></trkpt><trkpt lat="45.729148839385935" lon="9.75936543743415"><ele>305.0</ele><time>2026-04-20T13:51:02Z</time></trkpt><trkpt lat="45.729148839385935" lon="9.75936543743415"><ele>305.0</ele><time>2026-04-20T13:51:02Z</time></trkpt><trkpt lat="45.729148839385935" lon="9.75936543743415"><ele>305.0</ele><time>2026-04-20T13:51:02Z</time></trkpt><trkpt lat="45.729148839385935" lon="9.75936543743415"><ele>305.0</ele><time>2026-04-20T13:51:02Z</time></trkpt><trkpt lat="45.729148839385935" lon="9.75936543743415"><ele>305.0</ele><time>2026-04-20T13:51:02Z</time></trkpt><trkpt lat="45.729148839385935" lon="9.75936543743415"><ele>305.0</ele><time>2026-04-20T13:51:02Z</time></trkpt><trkpt lat="45.729148839385935" lon="9.75936543743415"><ele>305.0</ele><time>2026-04-20T13:51:02Z</time></trkpt><trkpt lat="45.729148839385935" lon="9.75936543743415"><ele>305.0</ele><time>2026-04-20T13:51:02Z</time></trkpt><trkpt lat="45.729148839385935" lon="9.75936543743415"><ele>305.0</ele><time>2026-04-20T13:51:02Z</time></trkpt><trkpt lat="45.729148839385935" lon="9.75936543743415"><ele>305.0</ele><time>2026-04-20T13:51:02Z</time></trkpt><trkpt lat="45.729148839385935" lon="9.75936543743415"><ele>305.0</ele><time>2026-04-20T13:51:02Z</time></trkpt><trkpt lat="45.729148839385935" lon="9.75936543743415"><ele>305.0</ele><time>2026-04-20T13:51:02Z</time></trkpt><trkpt lat="45.729148839385935" lon="9.75936543743415"><ele>305.0</ele><time>2026-04-20T13:51:02Z</time></trkpt><trkpt lat="45.729148839385935" lon="9.75936543743415"><ele>305.0</ele><time>2026-04-20T13:51:02Z</time></trkpt><trkpt lat="45.729148839385935" lon="9.75936543743415"><ele>305.0</ele><time>2026-04-20T13:51:02Z</time></trkpt></trkseg></trk></gpx>